Time;durP1;ratioP1;P1;durP2;ratioP2;P2;SDS_P1;SDS_P2;PMS_P1;PMS_P2;Temp;Humidity;BMP_temperature;BMP_pressure;BME280_temperature;BME280_humidity;BME280_pressure;Samples;Min_cycle;Max_cycle;Signal;HPM_P1;HPM_P2
2022/04/21 00:00:40;;;;;;;7.33;6.00;;;8.50;99.90;;;;;;5110948;28;20472;-75
2022/04/21 00:03:08;;;;;;;8.97;6.40;;;8.40;99.90;;;;;;5111683;28;20438;-75
2022/04/21 00:05:35;;;;;;;7.13;6.30;;;8.40;99.90;;;;;;5111593;28;20456;-75
2022/04/21 00:08:03;;;;;;;9.17;6.30;;;8.40;99.90;;;;;;5111417;28;20453;-75
2022/04/21 00:10:30;;;;;;;7.37;5.90;;;8.30;99.90;;;;;;5111320;28;20537;-75
2022/04/21 00:12:57;;;;;;;7.53;5.83;;;8.20;99.90;;;;;;5111283;28;20449;-75
2022/04/21 00:15:25;;;;;;;7.60;5.83;;;8.20;99.90;;;;;;5111664;28;20449;-75
2022/04/21 00:17:51;;;;;;;9.33;6.50;;;8.20;99.90;;;;;;5111336;28;20451;-75
2022/04/21 00:20:20;;;;;;;8.27;6.23;;;8.20;99.90;;;;;;5111378;28;20465;-75
2022/04/21 00:25:31;;;;;;;8.83;5.80;;;8.20;99.90;;;;;;5109717;28;20482;-75
2022/04/21 00:27:58;;;;;;;8.90;5.97;;;8.20;99.90;;;;;;5111023;28;20449;-75
2022/04/21 00:30:25;;;;;;;8.90;6.20;;;8.20;99.90;;;;;;5111243;28;20884;-75
2022/04/21 00:32:52;;;;;;;10.20;6.00;;;8.20;99.90;;;;;;5111031;28;20491;-75
2022/04/21 00:35:20;;;;;;;6.43;5.20;;;8.20;99.90;;;;;;5111281;28;20450;-75
2022/04/21 00:37:48;;;;;;;6.97;5.90;;;8.20;99.90;;;;;;5111154;28;20525;-75
2022/04/21 00:40:16;;;;;;;9.07;5.77;;;8.10;99.90;;;;;;5110414;28;20478;-75
2022/04/21 00:42:43;;;;;;;6.70;6.03;;;8.00;99.90;;;;;;5110540;28;20485;-75
2022/04/21 00:45:11;;;;;;;8.87;6.20;;;8.00;99.90;;;;;;5111347;28;20819;-75
2022/04/21 00:47:42;;;;;;;7.30;5.80;;;7.90;99.90;;;;;;5111140;28;20566;-75
2022/04/21 00:50:15;;;;;;;8.50;6.47;;;7.90;99.90;;;;;;5111115;28;20500;-75
2022/04/21 00:52:44;;;;;;;12.27;5.70;;;7.80;99.90;;;;;;5110543;28;20446;-75
2022/04/21 00:55:11;;;;;;;6.67;6.00;;;7.80;99.90;;;;;;5111041;28;20453;-75
2022/04/21 00:57:41;;;;;;;8.30;6.03;;;7.80;99.90;;;;;;5110495;28;20461;-75
2022/04/21 01:00:09;;;;;;;8.40;6.07;;;7.70;99.90;;;;;;5110873;28;20465;-75
2022/04/21 01:02:49;;;;;;;7.87;6.40;;;7.60;99.90;;;;;;5110553;28;20538;-75
2022/04/21 01:05:16;;;;;;;9.00;6.37;;;7.60;99.90;;;;;;5111034;28;20456;-75
2022/04/21 01:07:45;;;;;;;8.43;6.13;;;7.50;99.90;;;;;;5110749;28;20449;-75
2022/04/21 01:10:12;;;;;;;8.80;5.90;;;7.50;99.90;;;;;;5110277;28;20992;-75
2022/04/21 01:12:39;;;;;;;6.97;6.03;;;7.50;99.90;;;;;;5094901;28;20449;-75
2022/04/21 01:15:07;;;;;;;13.33;6.57;;;7.50;99.90;;;;;;5110208;28;20457;-75
2022/04/21 01:17:34;;;;;;;7.20;5.77;;;7.50;99.90;;;;;;5110841;28;20456;-75
2022/04/21 01:20:02;;;;;;;12.40;6.50;;;7.50;99.90;;;;;;5110242;28;20462;-75
2022/04/21 01:22:30;;;;;;;8.23;6.10;;;7.50;99.90;;;;;;5110700;28;20569;-75
2022/04/21 01:24:57;;;;;;;9.03;6.40;;;7.60;99.90;;;;;;5110479;28;20571;-75
2022/04/21 01:27:28;;;;;;;7.10;5.80;;;7.60;99.90;;;;;;5110740;28;20502;-75
2022/04/21 01:29:55;;;;;;;8.83;5.60;;;7.50;99.90;;;;;;5110658;28;20864;-75
2022/04/21 01:32:21;;;;;;;9.13;6.77;;;7.50;99.90;;;;;;5110946;28;20900;-75
2022/04/21 01:34:48;;;;;;;12.20;7.00;;;7.40;99.90;;;;;;5110547;28;20530;-75
2022/04/21 01:42:44;;;;;;;7.80;6.43;;;7.30;99.90;;;;;;5110306;28;20477;-75
2022/04/21 01:45:11;;;;;;;14.80;6.87;;;7.30;99.90;;;;;;5110713;28;20454;-75
2022/04/21 01:47:38;;;;;;;7.30;6.57;;;7.20;99.90;;;;;;5114048;28;20502;-75
2022/04/21 01:50:07;;;;;;;7.67;6.87;;;7.20;99.90;;;;;;5114507;28;20477;-75
2022/04/21 01:52:35;;;;;;;7.60;6.60;;;7.10;99.90;;;;;;5113733;27;20469;-75
2022/04/21 01:55:05;;;;;;;10.97;7.80;;;7.10;99.90;;;;;;5113435;27;20969;-75
2022/04/21 01:57:32;;;;;;;10.60;7.27;;;7.10;99.90;;;;;;5114170;28;20548;-75
2022/04/21 01:59:59;;;;;;;8.40;6.50;;;7.10;99.90;;;;;;5114017;28;20564;-75
2022/04/21 02:02:25;;;;;;;11.67;7.20;;;7.10;99.90;;;;;;5113100;28;20477;-75
2022/04/21 02:04:52;;;;;;;9.87;7.20;;;7.00;99.90;;;;;;5113618;27;20449;-75
2022/04/21 02:07:19;;;;;;;9.63;6.43;;;7.00;99.90;;;;;;5113817;28;20510;-75
2022/04/21 02:09:45;;;;;;;8.93;6.87;;;7.10;99.90;;;;;;5113953;28;20539;-75
2022/04/21 02:12:14;;;;;;;10.20;7.13;;;7.10;99.90;;;;;;5113672;28;20449;-75
2022/04/21 02:14:41;;;;;;;9.03;6.83;;;7.00;99.90;;;;;;5113532;28;20446;-75
2022/04/21 02:17:07;;;;;;;9.50;6.50;;;7.10;99.90;;;;;;5113385;28;20503;-75
2022/04/21 02:19:34;;;;;;;11.03;6.87;;;7.00;99.90;;;;;;5113073;28;20473;-75
2022/04/21 02:22:01;;;;;;;8.67;6.77;;;7.00;99.90;;;;;;5113698;28;20530;-75
2022/04/21 02:24:28;;;;;;;8.93;6.70;;;7.00;99.90;;;;;;5113289;28;20450;-75
2022/04/21 02:26:55;;;;;;;11.43;7.63;;;7.00;99.90;;;;;;5113442;28;20552;-75
2022/04/21 02:29:23;;;;;;;11.03;7.97;;;7.00;99.90;;;;;;5113123;28;20469;-75
2022/04/21 02:31:50;;;;;;;12.37;8.60;;;7.00;99.90;;;;;;5112561;28;20541;-75
2022/04/21 02:34:17;;;;;;;8.27;7.30;;;7.00;99.90;;;;;;5113024;28;20480;-75
2022/04/21 02:36:44;;;;;;;13.33;7.50;;;7.00;99.90;;;;;;5113373;28;20469;-75
2022/04/21 02:39:10;;;;;;;10.73;7.00;;;6.90;99.90;;;;;;5112846;28;20482;-75
2022/04/21 02:41:37;;;;;;;9.43;7.37;;;6.90;99.90;;;;;;5112976;28;20905;-75
2022/04/21 02:44:04;;;;;;;7.27;6.53;;;6.90;99.90;;;;;;5112668;28;20991;-75
2022/04/21 02:46:34;;;;;;;10.60;7.77;;;6.80;99.90;;;;;;5112412;28;20502;-75
2022/04/21 02:49:02;;;;;;;10.00;7.40;;;6.80;99.90;;;;;;5111881;28;20453;-75
2022/04/21 02:51:29;;;;;;;12.50;7.37;;;6.70;99.90;;;;;;5112666;28;20449;-75
2022/04/21 02:59:24;;;;;;;10.93;7.87;;;6.50;99.90;;;;;;5108215;28;20484;-75
2022/04/21 03:01:52;;;;;;;11.20;7.73;;;6.50;99.90;;;;;;5112391;28;20485;-75
2022/04/21 03:04:18;;;;;;;11.93;7.87;;;6.50;99.90;;;;;;5112400;28;20441;-75
2022/04/21 03:06:45;;;;;;;11.67;8.00;;;6.50;99.90;;;;;;5112200;28;20937;-75
2022/04/21 03:09:12;;;;;;;10.30;7.30;;;6.50;99.90;;;;;;5112255;28;20995;-75
2022/04/21 03:11:39;;;;;;;9.77;7.57;;;6.50;99.90;;;;;;5112060;28;20446;-75
2022/04/21 03:14:06;;;;;;;18.67;7.40;;;6.50;99.90;;;;;;5112526;28;20449;-75
2022/04/21 03:16:32;;;;;;;12.13;7.10;;;6.50;99.90;;;;;;5112451;28;20458;-75
2022/04/21 03:19:00;;;;;;;9.90;7.60;;;6.50;99.90;;;;;;5112505;28;20557;-75
2022/04/21 03:24:20;;;;;;;14.23;7.30;;;6.60;99.90;;;;;;5112145;28;20944;-75
2022/04/21 03:26:47;;;;;;;10.93;6.70;;;6.60;99.90;;;;;;5112293;28;20445;-75
2022/04/21 03:29:14;;;;;;;9.73;7.70;;;6.60;99.90;;;;;;5111895;28;20997;-75
2022/04/21 03:31:42;;;;;;;13.70;7.80;;;6.60;99.90;;;;;;5112075;28;20513;-75
2022/04/21 03:34:12;;;;;;;9.73;7.10;;;6.60;99.90;;;;;;5111890;28;20457;-75
2022/04/21 03:36:40;;;;;;;11.27;7.63;;;6.60;99.90;;;;;;5112085;28;20450;-75
2022/04/21 03:39:07;;;;;;;11.60;7.50;;;6.60;99.90;;;;;;5111192;28;20512;-75
2022/04/21 03:41:34;;;;;;;13.00;7.40;;;6.60;99.90;;;;;;5112091;28;20511;-75
2022/04/21 03:44:01;;;;;;;9.00;7.23;;;6.60;99.90;;;;;;5111925;28;20800;-75
2022/04/21 03:46:27;;;;;;;12.43;7.30;;;6.50;99.90;;;;;;5111970;28;20549;-75
2022/04/21 03:48:54;;;;;;;18.23;7.33;;;6.50;99.90;;;;;;5111384;28;20510;-75
2022/04/21 03:51:22;;;;;;;8.10;6.97;;;6.50;99.90;;;;;;5111438;28;20460;-75
2022/04/21 03:53:49;;;;;;;12.83;7.43;;;6.50;99.90;;;;;;5111187;28;20937;-75
2022/04/21 03:56:16;;;;;;;11.73;8.30;;;6.50;99.90;;;;;;5112087;28;20446;-75
2022/04/21 03:58:42;;;;;;;9.70;7.10;;;6.50;99.90;;;;;;5111521;28;20445;-75
2022/04/21 04:01:09;;;;;;;8.93;7.47;;;6.50;99.90;;;;;;5111910;28;20472;-75
2022/04/21 04:03:36;;;;;;;12.00;7.83;;;6.50;99.90;;;;;;5111528;28;20477;-75
2022/04/21 04:06:02;;;;;;;9.63;6.93;;;6.50;99.90;;;;;;5111220;28;20479;-75
2022/04/21 04:11:15;;;;;;;14.50;8.00;;;6.60;99.90;;;;;;5111505;28;20441;-75
2022/04/21 04:13:41;;;;;;;11.03;7.40;;;6.60;99.90;;;;;;5111318;28;20495;-75
2022/04/21 04:16:09;;;;;;;17.40;7.73;;;6.60;99.90;;;;;;5111123;28;20808;-75
2022/04/21 04:18:35;;;;;;;10.03;7.23;;;6.70;99.90;;;;;;5111599;28;20450;-75
2022/04/21 04:21:02;;;;;;;10.20;7.90;;;6.70;99.90;;;;;;5110982;28;20469;-75
2022/04/21 04:23:30;;;;;;;10.10;7.50;;;6.80;99.90;;;;;;5110743;28;21000;-75
2022/04/21 04:25:57;;;;;;;12.00;7.30;;;6.80;99.90;;;;;;5110947;28;20461;-75
2022/04/21 04:28:23;;;;;;;14.33;7.80;;;6.90;99.90;;;;;;5111086;28;20457;-75
2022/04/21 04:30:50;;;;;;;15.90;7.80;;;6.90;99.90;;;;;;5110697;28;20518;-75
2022/04/21 04:33:19;;;;;;;11.20;7.67;;;6.90;99.90;;;;;;5110907;28;20453;-75
2022/04/21 04:35:46;;;;;;;12.20;7.57;;;7.00;99.90;;;;;;5111016;28;20485;-75
2022/04/21 04:38:14;;;;;;;9.43;7.27;;;7.00;99.90;;;;;;5110832;28;20499;-76
2022/04/21 04:40:42;;;;;;;9.50;6.87;;;7.10;99.90;;;;;;5111134;28;20470;-75
2022/04/21 04:43:08;;;;;;;8.70;6.90;;;7.10;99.90;;;;;;5102989;28;20473;-75
2022/04/21 04:48:18;;;;;;;13.40;6.97;;;7.20;99.90;;;;;;5110533;28;20205;-75
2022/04/21 04:50:46;;;;;;;9.70;6.43;;;7.10;99.90;;;;;;5107750;28;20497;-75
2022/04/21 04:53:14;;;;;;;9.37;6.10;;;7.30;99.90;;;;;;5110865;28;20453;-76
2022/04/21 04:55:42;;;;;;;9.77;5.73;;;7.40;99.90;;;;;;5111268;28;20456;-74
2022/04/21 04:58:08;;;;;;;10.37;5.80;;;7.40;99.90;;;;;;5110533;28;20450;-75
2022/04/21 05:00:35;;;;;;;6.73;5.73;;;7.50;99.90;;;;;;5110255;28;20466;-75
2022/04/21 05:03:02;;;;;;;6.30;5.70;;;7.50;99.90;;;;;;5110548;28;20507;-76
2022/04/21 05:05:29;;;;;;;9.07;6.53;;;7.60;99.90;;;;;;5110865;28;20481;-75
2022/04/21 05:07:55;;;;;;;11.40;5.77;;;7.60;99.90;;;;;;5110525;28;20484;-75
2022/04/21 05:10:23;;;;;;;10.73;6.73;;;7.60;99.90;;;;;;5110621;28;20910;-75
2022/04/21 05:12:51;;;;;;;12.67;8.27;;;7.70;99.90;;;;;;5110906;28;20468;-76
2022/04/21 05:15:18;;;;;;;15.73;10.20;;;7.70;99.90;;;;;;5110461;28;20457;-75
2022/04/21 05:17:45;;;;;;;16.77;9.40;;;7.70;99.90;;;;;;5110846;28;20504;-75
2022/04/21 05:20:13;;;;;;;18.20;10.07;;;7.70;99.90;;;;;;5110884;28;20461;-75
2022/04/21 05:22:45;;;;;;;22.87;12.40;;;7.70;99.90;;;;;;5114821;28;20506;-75
2022/04/21 05:25:13;;;;;;;25.50;12.50;;;7.80;99.90;;;;;;5114079;28;20510;-75
2022/04/21 05:27:41;;;;;;;22.90;11.67;;;7.80;99.90;;;;;;5114377;28;20453;-75
2022/04/21 05:32:58;;;;;;;16.83;8.83;;;7.80;99.90;;;;;;5114218;28;20443;-75
2022/04/21 05:35:25;;;;;;;12.80;8.20;;;7.90;99.90;;;;;;5114315;28;20453;-75
2022/04/21 05:37:52;;;;;;;11.47;7.53;;;7.90;99.90;;;;;;5114107;28;20462;-74
2022/04/21 05:40:20;;;;;;;13.07;7.23;;;7.90;99.90;;;;;;5113688;28;20471;-75
2022/04/21 05:42:50;;;;;;;9.67;7.20;;;7.90;99.90;;;;;;5112024;28;20485;-75
2022/04/21 05:45:19;;;;;;;12.13;6.83;;;8.00;99.90;;;;;;5113299;28;20578;-74
2022/04/21 05:47:47;;;;;;;12.83;6.63;;;8.10;99.90;;;;;;5113270;28;21022;-75
2022/04/21 05:50:16;;;;;;;11.07;6.37;;;8.10;99.90;;;;;;5113530;28;20916;-75
2022/04/21 05:52:45;;;;;;;12.63;6.97;;;8.10;99.90;;;;;;5113439;28;20445;-75
2022/04/21 05:55:15;;;;;;;11.00;6.13;;;8.20;99.90;;;;;;5113436;28;20446;-75
2022/04/21 05:57:42;;;;;;;9.13;6.47;;;8.20;99.90;;;;;;5113548;28;20458;-76
2022/04/21 06:00:11;;;;;;;9.93;6.67;;;8.40;99.90;;;;;;5109168;28;20488;-76
2022/04/21 06:02:39;;;;;;;11.40;6.30;;;8.50;99.90;;;;;;5110345;27;20481;-76
2022/04/21 06:05:06;;;;;;;7.17;6.23;;;8.80;99.90;;;;;;5114025;28;20472;-76
2022/04/21 06:07:33;;;;;;;7.17;5.10;;;8.90;99.90;;;;;;5114531;28;20453;-75
2022/04/21 06:10:00;;;;;;;6.03;5.43;;;9.10;99.90;;;;;;5113704;28;20477;-76
2022/04/21 06:12:27;;;;;;;7.50;5.77;;;9.10;99.90;;;;;;5113639;28;20582;-76
2022/04/21 06:14:53;;;;;;;6.33;5.73;;;9.10;99.90;;;;;;5113664;28;20507;-76
2022/04/21 06:17:20;;;;;;;7.67;5.90;;;9.00;99.90;;;;;;5113452;28;20491;-76
2022/04/21 06:19:49;;;;;;;7.40;5.90;;;8.90;99.90;;;;;;5113563;28;20466;-76
2022/04/21 06:22:15;;;;;;;12.20;6.33;;;8.80;99.90;;;;;;5113690;28;20512;-76
2022/04/21 06:24:42;;;;;;;9.30;6.50;;;8.70;99.90;;;;;;5113092;28;20490;-76
2022/04/21 06:27:09;;;;;;;9.67;6.20;;;8.60;99.90;;;;;;5112877;28;20441;-76
2022/04/21 06:29:36;;;;;;;9.03;6.20;;;8.50;99.90;;;;;;5113412;27;20477;-76
2022/04/21 06:32:03;;;;;;;11.57;6.67;;;8.40;99.90;;;;;;5113146;28;20864;-76
2022/04/21 06:34:32;;;;;;;10.23;6.17;;;8.40;99.90;;;;;;5112774;28;20495;-76
2022/04/21 06:37:00;;;;;;;9.60;6.60;;;8.40;99.90;;;;;;5113262;27;20507;-76
2022/04/21 06:39:27;;;;;;;11.33;6.90;;;8.40;99.90;;;;;;5113688;28;20469;-76
2022/04/21 06:41:54;;;;;;;9.27;6.37;;;8.40;99.90;;;;;;5113468;28;20449;-76
2022/04/21 06:49:54;;;;;;;15.07;7.10;;;8.50;99.90;;;;;;5091539;28;20488;-76
2022/04/21 06:52:22;;;;;;;10.50;6.60;;;8.50;99.90;;;;;;5092718;28;20500;-76
2022/04/21 06:54:49;;;;;;;15.07;7.50;;;8.60;99.90;;;;;;5092521;28;20492;-75
2022/04/21 06:57:16;;;;;;;9.20;6.60;;;8.70;99.90;;;;;;5092632;28;20446;-76
2022/04/21 06:59:42;;;;;;;9.17;6.97;;;8.80;99.90;;;;;;5105865;28;20466;-76
2022/04/21 07:02:12;;;;;;;6.47;5.80;;;8.80;99.90;;;;;;5110201;27;20454;-76
2022/04/21 07:04:39;;;;;;;7.50;6.10;;;8.80;99.90;;;;;;5112256;28;20527;-76
2022/04/21 07:07:05;;;;;;;8.50;6.90;;;8.90;99.90;;;;;;5112834;28;20441;-76
2022/04/21 07:09:33;;;;;;;11.23;6.40;;;9.00;99.90;;;;;;5112558;27;20527;-76
2022/04/21 07:12:00;;;;;;;9.10;6.20;;;9.20;99.90;;;;;;5112729;28;20446;-76
2022/04/21 07:14:27;;;;;;;7.93;6.50;;;9.20;99.90;;;;;;5112085;28;20442;-76
2022/04/21 07:16:58;;;;;;;13.43;6.60;;;9.20;99.90;;;;;;5112802;28;20445;-75
2022/04/21 07:19:24;;;;;;;10.17;6.87;;;9.20;99.90;;;;;;5112413;28;20473;-76
2022/04/21 07:21:51;;;;;;;18.90;6.90;;;9.20;99.90;;;;;;5112443;28;20464;-76
2022/04/21 07:24:18;;;;;;;12.13;6.40;;;9.20;99.90;;;;;;5111573;28;20474;-75
2022/04/21 07:26:46;;;;;;;16.40;6.60;;;9.20;99.90;;;;;;5111810;28;20450;-76
2022/04/21 07:29:12;;;;;;;9.50;6.40;;;9.10;99.90;;;;;;5112487;28;20473;-76
2022/04/21 07:31:40;;;;;;;13.30;7.00;;;9.10;99.90;;;;;;5112454;28;20475;-76
2022/04/21 07:34:07;;;;;;;21.33;6.90;;;9.00;99.90;;;;;;5111318;28;20478;-76
2022/04/21 07:36:34;;;;;;;15.20;7.47;;;9.00;99.90;;;;;;5111492;28;20453;-76
2022/04/21 07:39:01;;;;;;;8.53;7.17;;;9.00;99.90;;;;;;5111316;28;20465;-76
2022/04/21 07:41:28;;;;;;;10.87;7.27;;;9.00;99.90;;;;;;5112262;28;20532;-76
2022/04/21 07:43:56;;;;;;;9.57;6.97;;;9.00;99.90;;;;;;5110646;28;20561;-76
2022/04/21 07:46:22;;;;;;;17.57;7.67;;;8.90;99.90;;;;;;5112090;27;20445;-76
2022/04/21 07:51:33;;;;;;;10.70;7.43;;;8.90;99.90;;;;;;5111597;28;20445;-76
2022/04/21 07:53:59;;;;;;;9.13;7.33;;;9.00;99.90;;;;;;5111932;28;20434;-76
2022/04/21 07:56:27;;;;;;;15.70;8.07;;;9.00;99.90;;;;;;5112046;28;20999;-76
2022/04/21 07:58:53;;;;;;;11.43;7.67;;;9.00;99.90;;;;;;5111530;28;20196;-76
2022/04/21 08:01:21;;;;;;;15.83;7.40;;;9.00;99.90;;;;;;5109863;28;20479;-77
2022/04/21 08:03:48;;;;;;;21.30;7.40;;;9.10;99.90;;;;;;5110833;28;20576;-76
2022/04/21 08:06:15;;;;;;;20.43;7.70;;;9.10;99.90;;;;;;5111067;28;20442;-75
2022/04/21 08:08:41;;;;;;;13.40;7.07;;;9.10;99.90;;;;;;5111023;28;20507;-75
2022/04/21 08:11:08;;;;;;;14.30;7.40;;;9.10;99.90;;;;;;5110797;28;20466;-74
2022/04/21 08:13:35;;;;;;;11.90;7.20;;;9.20;99.90;;;;;;5110145;28;20533;-74
2022/04/21 08:16:02;;;;;;;12.90;6.90;;;9.20;99.90;;;;;;5110068;28;20452;-74
2022/04/21 08:18:30;;;;;;;11.20;7.03;;;9.30;99.90;;;;;;5110803;28;20452;-74
2022/04/21 08:20:58;;;;;;;17.23;6.60;;;9.40;99.90;;;;;;5110206;28;20475;-74
2022/04/21 08:23:25;;;;;;;9.07;6.40;;;9.50;99.90;;;;;;5110418;28;20484;-74
2022/04/21 08:34:21;;;;;;;7.53;5.47;;;10.00;99.90;;;;;;5109828;28;20533;-74
2022/04/21 08:36:47;;;;;;;6.17;5.57;;;10.10;99.90;;;;;;5110593;28;20545;-74
2022/04/21 08:39:14;;;;;;;6.90;6.20;;;10.40;99.90;;;;;;5109411;28;20503;-74
2022/04/21 08:41:49;;;;;;;12.30;6.10;;;10.50;99.90;;;;;;5110594;28;21011;-75
2022/04/21 08:44:19;;;;;;;7.23;5.80;;;10.70;99.90;;;;;;5110019;28;20537;-74
2022/04/21 08:46:48;;;;;;;10.23;5.50;;;11.00;99.90;;;;;;5110770;28;20442;-75
2022/04/21 08:49:18;;;;;;;8.13;5.33;;;11.20;99.90;;;;;;5110465;28;20745;-75
2022/04/21 08:51:46;;;;;;;7.27;5.30;;;11.50;99.90;;;;;;5110125;28;20441;-76
2022/04/21 08:54:13;;;;;;;9.40;5.80;;;11.90;99.90;;;;;;5111333;28;20441;-75
2022/04/21 08:56:40;;;;;;;7.53;5.43;;;12.10;99.90;;;;;;5114899;28;20456;-75
2022/04/21 08:59:06;;;;;;;8.73;5.83;;;12.20;99.90;;;;;;5114755;27;20451;-75
2022/04/21 09:01:34;;;;;;;8.53;5.83;;;12.20;99.90;;;;;;5114699;28;20450;-75
2022/04/21 09:04:01;;;;;;;10.57;6.80;;;12.30;99.90;;;;;;5114221;28;20588;-74
2022/04/21 09:06:29;;;;;;;9.60;5.60;;;12.30;99.90;;;;;;5114589;28;20492;-74
2022/04/21 09:09:17;;;;;;;6.73;5.33;;;12.30;99.90;;;;;;5114619;28;20449;-74
2022/04/21 09:11:45;;;;;;;9.47;5.30;;;12.20;99.90;;;;;;5114411;28;20948;-76
2022/04/21 09:14:16;;;;;;;15.63;6.50;;;12.30;99.90;;;;;;5114205;28;20932;-75
2022/04/21 09:16:42;;;;;;;8.63;5.73;;;12.30;99.90;;;;;;5114343;28;20476;-75
2022/04/21 09:19:09;;;;;;;8.67;5.63;;;12.30;99.90;;;;;;5114701;28;20462;-75
2022/04/21 09:21:37;;;;;;;10.10;6.13;;;12.40;99.90;;;;;;5114298;28;20861;-75
2022/04/21 09:26:57;;;;;;;9.10;5.43;;;12.50;99.90;;;;;;5165435;27;20777;-75
2022/04/21 09:29:25;;;;;;;8.40;5.70;;;12.70;99.90;;;;;;5147421;27;20964;-75
2022/04/21 09:31:59;;;;;;;8.50;5.70;;;12.90;99.90;;;;;;5140598;27;20547;-75
2022/04/21 09:34:26;;;;;;;8.30;5.33;;;13.00;99.90;;;;;;5129672;27;20436;-75
2022/04/21 09:36:55;;;;;;;10.60;5.87;;;13.40;99.90;;;;;;5130552;27;20852;-75
2022/04/21 09:39:22;;;;;;;8.07;4.87;;;14.10;99.90;;;;;;5136926;27;20535;-75
2022/04/21 09:41:56;;;;;;;8.60;4.90;;;14.60;99.90;;;;;;5149460;27;20552;-79
2022/04/21 09:47:18;;;;;;;8.13;5.23;;;15.10;99.90;;;;;;5138708;27;20420;-78
2022/04/21 09:49:45;;;;;;;10.20;5.80;;;15.10;99.90;;;;;;5143765;27;20530;-78
2022/04/21 09:52:13;;;;;;;10.10;6.00;;;15.10;99.90;;;;;;5128551;28;20449;-78
2022/04/21 09:54:40;;;;;;;5.63;4.47;;;15.00;99.90;;;;;;5128341;28;20470;-77
2022/04/21 09:57:09;;;;;;;6.87;4.17;;;14.80;99.90;;;;;;5128281;28;20447;-78
2022/04/21 09:59:36;;;;;;;5.17;4.70;;;14.80;99.90;;;;;;5130963;27;20472;-78
2022/04/21 10:02:03;;;;;;;8.37;4.53;;;15.00;99.90;;;;;;5148757;27;20966;-78
2022/04/21 10:04:31;;;;;;;5.67;5.07;;;15.20;99.90;;;;;;5148494;27;20447;-76
2022/04/21 10:06:58;;;;;;;8.13;4.80;;;15.60;99.90;;;;;;5149539;27;21063;-77
2022/04/21 10:09:25;;;;;;;11.70;4.70;;;15.80;99.90;;;;;;5147720;27;20468;-78
2022/04/21 10:11:53;;;;;;;5.03;4.53;;;16.00;99.90;;;;;;5148586;27;20956;-78
2022/04/21 10:14:21;;;;;;;4.90;4.40;;;16.00;99.90;;;;;;5148587;27;20531;-79
2022/04/21 10:16:50;;;;;;;5.90;4.53;;;15.60;99.90;;;;;;5148299;27;20436;-78
2022/04/21 10:19:19;;;;;;;6.93;4.93;;;15.90;99.90;;;;;;5148421;27;20525;-78
2022/04/21 10:21:51;;;;;;;5.60;4.30;;;16.30;99.90;;;;;;5128864;27;20449;-77
2022/04/21 10:24:22;;;;;;;6.83;4.73;;;16.80;99.90;;;;;;5127765;28;20444;-78
2022/04/21 10:26:48;;;;;;;8.33;4.60;;;16.90;99.90;;;;;;5137095;27;20454;-78
2022/04/21 10:29:17;;;;;;;7.27;4.97;;;16.80;99.90;;;;;;5147482;27;20882;-78
2022/04/21 10:31:51;;;;;;;6.03;4.30;;;16.70;99.90;;;;;;5148388;27;20452;-78
2022/04/21 10:34:32;;;;;;;5.40;3.87;;;16.50;99.90;;;;;;5148632;27;20451;-79
2022/04/21 10:37:13;;;;;;;6.37;4.80;;;16.80;99.90;;;;;;5143706;27;20525;-79
2022/04/21 10:39:41;;;;;;;5.50;4.10;;;17.20;99.90;;;;;;5117621;27;20448;-78
2022/04/21 10:42:15;;;;;;;7.80;4.70;;;17.30;99.90;;;;;;5113688;28;20484;-77
2022/04/21 10:44:44;;;;;;;4.17;3.87;;;17.20;99.90;;;;;;5113244;28;20460;-77
2022/04/21 10:47:32;;;;;;;5.17;4.30;;;17.50;99.90;;;;;;5122762;27;20512;-77
2022/04/21 10:50:00;;;;;;;6.93;4.57;;;17.40;99.90;;;;;;5133898;27;20447;-77
2022/04/21 10:58:49;;;;;;;7.67;4.90;;;18.10;99.90;;;;;;5133147;27;20459;-77
2022/04/21 11:01:18;;;;;;;4.10;3.80;;;18.40;99.90;;;;;;5101544;28;20412;-77
2022/04/21 11:03:47;;;;;;;4.70;3.80;;;18.90;99.90;;;;;;5113372;28;20441;-77
2022/04/21 11:06:15;;;;;;;4.83;4.37;;;19.40;99.90;;;;;;5113785;27;20477;-77
2022/04/21 11:08:42;;;;;;;3.97;3.67;;;19.20;99.90;;;;;;5133601;27;20464;-77
2022/04/21 11:11:11;;;;;;;3.83;3.47;;;19.20;99.90;;;;;;5116296;27;20468;-77
2022/04/21 11:13:42;;;;;;;9.73;4.33;;;19.40;99.90;;;;;;5125665;27;20453;-77
2022/04/21 11:16:09;;;;;;;8.10;4.63;;;19.30;99.90;;;;;;5131491;27;20449;-77
2022/04/21 11:18:36;;;;;;;5.73;3.77;;;19.30;99.90;;;;;;5133378;27;20424;-77
2022/04/21 11:21:24;;;;;;;9.73;3.90;;;19.00;99.90;;;;;;5133174;27;20477;-77
2022/04/21 11:24:03;;;;;;;4.30;3.90;;;18.70;99.90;;;;;;5132868;27;20449;-78
2022/04/21 11:26:30;;;;;;;4.43;3.60;;;18.60;99.90;;;;;;5133138;27;20488;-77
2022/04/21 11:29:03;;;;;;;5.33;4.13;;;18.40;99.90;;;;;;5132402;27;20423;-77
2022/04/21 11:31:29;;;;;;;5.30;3.87;;;18.70;99.90;;;;;;5132961;27;20449;-77
2022/04/21 11:34:02;;;;;;;5.60;3.70;;;18.90;99.90;;;;;;5132901;27;20437;-77
2022/04/21 11:36:37;;;;;;;4.50;4.10;;;18.70;99.90;;;;;;5132170;27;21018;-76
2022/04/21 11:39:08;;;;;;;5.27;4.30;;;18.20;99.90;;;;;;5130125;27;20462;-77
2022/04/21 11:41:35;;;;;;;6.77;4.97;;;18.00;99.90;;;;;;5132257;27;20839;-77
2022/04/21 11:44:02;;;;;;;5.70;4.50;;;17.90;99.90;;;;;;5132576;27;20456;-77
2022/04/21 11:46:28;;;;;;;4.33;3.93;;;17.90;99.90;;;;;;5131791;27;20447;-78
2022/04/21 11:49:00;;;;;;;5.00;4.17;;;18.00;99.90;;;;;;5131376;27;20423;-78
2022/04/21 11:51:28;;;;;;;6.20;4.50;;;17.90;99.90;;;;;;5113322;27;20828;-78
2022/04/21 11:54:03;;;;;;;5.60;4.03;;;17.80;99.90;;;;;;5111575;28;20525;-77
2022/04/21 11:56:29;;;;;;;5.30;4.30;;;18.10;99.90;;;;;;5113016;27;20976;-77
2022/04/21 11:58:57;;;;;;;6.43;4.60;;;17.80;99.90;;;;;;5132085;27;20972;-78
2022/04/21 12:06:56;;;;;;;5.37;4.67;;;17.30;99.90;;;;;;5131472;27;20670;-77
2022/04/21 12:09:26;;;;;;;6.47;4.70;;;17.00;99.90;;;;;;5132100;27;20669;-77
2022/04/21 12:11:55;;;;;;;5.67;5.10;;;16.90;99.90;;;;;;5123049;27;20424;-78
2022/04/21 12:14:22;;;;;;;10.40;5.17;;;16.80;99.90;;;;;;5117388;27;20932;-78
2022/04/21 12:16:53;;;;;;;10.00;5.00;;;16.70;99.90;;;;;;5111762;28;20495;-80
2022/04/21 12:19:26;;;;;;;6.77;5.17;;;16.70;99.90;;;;;;5111510;28;20497;-78
2022/04/21 12:21:58;;;;;;;5.63;4.60;;;16.70;99.90;;;;;;5125739;27;20416;-78
2022/04/21 12:24:35;;;;;;;5.80;4.57;;;16.70;99.90;;;;;;5111350;28;20673;-78
2022/04/21 12:27:03;;;;;;;6.50;4.20;;;16.80;99.90;;;;;;5122846;27;20897;-78
2022/04/21 12:29:31;;;;;;;6.87;4.93;;;16.90;99.90;;;;;;5130650;27;20561;-77
2022/04/21 12:32:01;;;;;;;7.27;4.60;;;17.00;99.90;;;;;;5131832;27;20445;-78
2022/04/21 12:34:30;;;;;;;8.40;4.43;;;17.10;99.90;;;;;;5131460;27;20544;-77
2022/04/21 12:36:58;;;;;;;8.33;4.83;;;17.00;99.90;;;;;;5131394;27;20416;-77
2022/04/21 12:39:26;;;;;;;5.87;4.50;;;17.00;99.90;;;;;;5130230;27;20439;-77
2022/04/21 12:41:55;;;;;;;5.87;4.50;;;17.00;99.90;;;;;;5131699;27;20419;-77
2022/04/21 12:44:24;;;;;;;8.47;4.80;;;17.20;99.90;;;;;;5131280;27;20419;-77
2022/04/21 12:46:59;;;;;;;6.33;4.33;;;17.20;99.90;;;;;;5125448;27;20485;-77
2022/04/21 12:49:45;;;;;;;7.17;4.67;;;17.40;99.90;;;;;;5125075;27;20493;-77
2022/04/21 12:52:12;;;;;;;8.93;5.70;;;18.10;99.90;;;;;;5131274;27;20445;-77
2022/04/21 12:54:39;;;;;;;5.23;4.73;;;18.50;99.90;;;;;;5130476;27;20419;-77
2022/04/21 12:57:09;;;;;;;4.43;4.03;;;19.10;99.90;;;;;;5131394;27;20443;-78
2022/04/21 12:59:35;;;;;;;4.40;4.00;;;19.70;99.90;;;;;;5131110;27;20469;-78
2022/04/21 13:02:02;;;;;;;4.83;4.00;;;20.10;99.90;;;;;;5131278;27;20933;-78
2022/04/21 13:04:29;;;;;;;5.33;3.70;;;20.10;99.90;;;;;;5130614;27;20448;-78
2022/04/21 13:06:55;;;;;;;5.40;4.10;;;19.80;99.90;;;;;;5131293;27;20476;-77
2022/04/21 13:09:22;;;;;;;4.07;3.77;;;19.10;99.90;;;;;;5131215;27;20512;-79
2022/04/21 13:11:49;;;;;;;8.83;4.67;;;18.70;99.90;;;;;;5131489;27;20445;-79
2022/04/21 13:14:17;;;;;;;5.00;4.00;;;18.50;99.90;;;;;;5130739;27;20963;-78
2022/04/21 13:16:43;;;;;;;5.77;4.10;;;18.40;99.90;;;;;;5130407;27;20444;-79
2022/04/21 13:19:10;;;;;;;7.50;4.57;;;18.60;99.90;;;;;;5131397;27;21081;-78
2022/04/21 13:21:55;;;;;;;5.70;4.30;;;19.00;99.90;;;;;;5131211;27;20427;-78
2022/04/21 13:24:22;;;;;;;9.40;4.60;;;19.60;99.90;;;;;;5131019;28;20423;-78
2022/04/21 13:26:49;;;;;;;7.70;4.70;;;20.20;99.90;;;;;;5129526;28;20451;-78
2022/04/21 13:29:17;;;;;;;7.07;4.33;;;20.50;99.90;;;;;;5130937;28;20959;-77
2022/04/21 13:34:28;;;;;;;5.30;4.13;;;19.50;99.90;;;;;;5130925;28;20566;-78
2022/04/21 13:36:55;;;;;;;4.93;4.10;;;19.20;99.90;;;;;;5130140;28;20424;-78
2022/04/21 13:39:22;;;;;;;8.00;4.40;;;18.80;99.90;;;;;;5123646;28;20448;-79
2022/04/21 13:41:48;;;;;;;5.20;4.67;;;18.50;99.90;;;;;;5110645;28;20855;-80
2022/04/21 13:44:17;;;;;;;6.00;4.30;;;18.20;99.90;;;;;;5110472;28;21005;-79
2022/04/21 13:46:44;;;;;;;5.77;4.30;;;18.10;99.90;;;;;;5110787;28;20845;-79
2022/04/21 13:49:11;;;;;;;6.30;4.70;;;18.10;99.90;;;;;;5117980;28;20447;-78
2022/04/21 13:51:38;;;;;;;5.67;4.10;;;18.10;99.90;;;;;;5131029;27;20501;-79
2022/04/21 13:54:05;;;;;;;4.77;4.30;;;17.90;99.90;;;;;;5130535;28;20484;-77
2022/04/21 13:56:35;;;;;;;5.50;4.67;;;17.90;99.90;;;;;;5130555;28;20787;-78